Time,TemperatureF,DewpointF,PressureIn,WindDirection,WindDirectionDegrees,WindSpeedMPH,WindSpeedGustMPH,Humidity,HourlyPrecipIn,Conditions,Clouds,dailyrainin,SolarRadiationWatts/m^2,SoftwareType,DateUTC
2013-08-07 00:22:00,58.0,44.0,-100.00,WSW,247,3.0,7.0,59,0.00,,,0.00,0.000000,,2013-08-07 08:22:00,
2013-08-07 00:32:00,58.0,44.0,-100.00,WSW,247,3.0,7.0,59,0.00,,,0.00,0.000000,,2013-08-07 08:32:00,
2013-08-07 00:43:00,58.0,44.0,-100.00,WSW,247,3.0,7.0,59,0.00,,,0.00,0.000000,,2013-08-07 08:43:00,
2013-08-07 00:52:00,58.0,44.0,-100.00,WSW,247,3.0,7.0,59,0.00,,,0.00,0.000000,,2013-08-07 08:52:00,
2013-08-07 01:43:00,55.0,48.0,-100.00,West,261,4.0,9.0,76,0.00,,,0.00,0.000000,,2013-08-07 09:43:00,
2013-08-07 01:54:00,55.0,48.0,-100.00,West,261,4.0,9.0,76,0.00,,,0.00,0.000000,,2013-08-07 09:54:00,
2013-08-07 02:32:00,55.0,49.0,-100.00,South,189,5.0,11.0,81,0.00,,,0.00,0.000000,,2013-08-07 10:32:00,
2013-08-07 02:43:00,55.0,49.0,-100.00,South,189,5.0,11.0,81,0.00,,,0.00,0.000000,,2013-08-07 10:43:00,
2013-08-07 02:52:00,55.0,49.0,-100.00,South,189,5.0,11.0,81,0.00,,,0.00,0.000000,,2013-08-07 10:52:00,
2013-08-07 03:22:00,56.0,51.0,-100.00,ENE,75,6.0,14.0,83,0.00,,,-99.99,0.000000,,2013-08-07 11:22:00,
2013-08-07 03:32:00,56.0,51.0,-100.00,ENE,75,6.0,14.0,83,0.00,,,-99.99,0.000000,,2013-08-07 11:32:00,
2013-08-07 03:43:00,56.0,51.0,-100.00,ENE,75,6.0,14.0,83,0.00,,,-99.99,0.000000,,2013-08-07 11:43:00,
2013-08-07 03:52:00,56.0,51.0,-100.00,ENE,75,6.0,14.0,83,0.00,,,-99.99,0.000000,,2013-08-07 11:52:00,
2013-08-07 04:22:00,58.0,45.0,-100.00,SE,142,3.0,13.0,61,0.00,,,0.00,0.000000,,2013-08-07 12:22:00,
2013-08-07 04:32:00,58.0,45.0,-100.00,SE,142,3.0,13.0,61,0.00,,,0.00,0.000000,,2013-08-07 12:32:00,
2013-08-07 04:43:00,58.0,45.0,-100.00,SE,142,3.0,13.0,61,0.00,,,0.00,0.000000,,2013-08-07 12:43:00,
2013-08-07 04:52:00,58.0,45.0,-100.00,SE,142,3.0,13.0,61,0.00,,,0.00,0.000000,,2013-08-07 12:52:00,
2013-08-07 05:44:00,58.0,46.0,-100.00,SE,132,4.0,12.0,64,0.00,,,0.00,0.000000,,2013-08-07 13:44:00,
2013-08-07 05:52:00,58.0,46.0,-100.00,SE,132,4.0,12.0,64,0.00,,,0.00,0.000000,,2013-08-07 13:52:00,
2013-08-07 06:43:00,59.0,44.0,-100.00,ESE,123,6.0,15.0,57,0.00,,,0.00,0.000000,,2013-08-07 14:43:00,
2013-08-07 06:52:00,59.0,44.0,-100.00,ESE,123,6.0,15.0,57,0.00,,,0.00,0.000000,,2013-08-07 14:52:00,
2013-08-07 07:22:00,57.0,44.0,-100.00,ESE,106,4.0,11.0,62,0.00,,,0.00,4.000000,,2013-08-07 15:22:00,
2013-08-07 07:33:00,57.0,44.0,-100.00,ESE,106,4.0,11.0,62,0.00,,,0.00,4.000000,,2013-08-07 15:33:00,
2013-08-07 07:43:00,57.0,44.0,-100.00,ESE,106,4.0,11.0,62,0.00,,,0.00,4.000000,,2013-08-07 15:43:00,
2013-08-07 07:53:00,57.0,44.0,-100.00,ESE,106,4.0,11.0,62,0.00,,,0.00,4.000000,,2013-08-07 15:53:00,
2013-08-07 08:33:00,54.0,43.0,-100.00,SSW,206,3.0,11.0,67,0.00,,,0.00,15.000000,,2013-08-07 16:33:00,
2013-08-07 08:43:00,54.0,43.0,-100.00,SSW,206,3.0,11.0,67,0.00,,,0.00,15.000000,,2013-08-07 16:43:00,
2013-08-07 08:52:00,54.0,43.0,-100.00,SSW,206,3.0,11.0,67,0.00,,,0.00,15.000000,,2013-08-07 16:52:00,
2013-08-07 09:22:00,53.0,49.0,-100.00,SSE,167,3.0,6.0,87,0.00,,,0.00,40.000000,,2013-08-07 17:22:00,
2013-08-07 09:33:00,53.0,49.0,-100.00,SSE,167,3.0,6.0,87,0.00,,,0.00,40.000000,,2013-08-07 17:33:00,
2013-08-07 09:43:00,53.0,49.0,-100.00,SSE,167,3.0,6.0,87,0.00,,,0.00,40.000000,,2013-08-07 17:43:00,
2013-08-07 09:52:00,53.0,49.0,-100.00,SSE,167,3.0,6.0,87,0.00,,,0.00,40.000000,,2013-08-07 17:52:00,
2013-08-07 10:22:00,53.0,50.0,-100.00,SW,220,2.0,5.0,90,0.00,,,0.00,59.000000,,2013-08-07 18:22:00,
2013-08-07 10:32:00,53.0,50.0,-100.00,SW,220,2.0,5.0,90,0.00,,,0.00,59.000000,,2013-08-07 18:32:00,
2013-08-07 10:43:00,53.0,50.0,-100.00,SW,220,2.0,5.0,90,0.00,,,0.00,59.000000,,2013-08-07 18:43:00,
2013-08-07 10:52:00,53.0,50.0,-100.00,SW,220,2.0,5.0,90,0.00,,,0.00,59.000000,,2013-08-07 18:52:00,
2013-08-07 11:44:00,54.0,51.0,-100.00,NE,45,3.0,5.0,90,0.01,,,0.01,72.000000,,2013-08-07 19:44:00,
2013-08-07 11:52:00,54.0,51.0,-100.00,NE,45,3.0,5.0,90,0.01,,,0.01,72.000000,,2013-08-07 19:52:00,
2013-08-07 12:43:00,54.0,52.0,-100.00,NE,54,2.0,4.0,94,0.01,,,0.02,83.000000,,2013-08-07 20:43:00,
2013-08-07 12:52:00,54.0,52.0,-100.00,NE,54,2.0,4.0,94,0.01,,,0.02,83.000000,,2013-08-07 20:52:00,
2013-08-07 13:43:00,56.0,53.0,-100.00,WNW,294,3.0,7.0,89,0.01,,,0.03,155.000000,,2013-08-07 21:43:00,
2013-08-07 13:52:00,56.0,53.0,-100.00,WNW,294,3.0,7.0,89,0.01,,,0.03,155.000000,,2013-08-07 21:52:00,
2013-08-07 14:22:00,58.0,56.0,-100.00,North,11,4.0,9.0,92,0.00,,,0.03,219.000000,,2013-08-07 22:22:00,
2013-08-07 14:32:00,58.0,56.0,-100.00,North,11,4.0,9.0,92,0.00,,,0.03,219.000000,,2013-08-07 22:32:00,
2013-08-07 14:43:00,58.0,56.0,-100.00,North,11,4.0,9.0,92,0.00,,,0.03,219.000000,,2013-08-07 22:43:00,
2013-08-07 14:52:00,58.0,56.0,-100.00,North,11,4.0,9.0,92,0.00,,,0.03,219.000000,,2013-08-07 22:52:00,
2013-08-07 15:43:00,58.0,54.0,-100.00,NW,318,2.0,7.0,88,0.00,,,0.03,230.000000,,2013-08-07 23:43:00,
2013-08-07 15:52:00,58.0,54.0,-100.00,NW,318,2.0,7.0,88,0.00,,,0.03,230.000000,,2013-08-07 23:52:00,
2013-08-07 16:42:00,56.0,53.0,-100.00,NNE,19,3.0,7.0,89,0.00,,,0.03,141.000000,,2013-08-08 00:42:00,
2013-08-07 16:52:00,56.0,53.0,-100.00,NNE,19,3.0,7.0,89,0.00,,,0.03,141.000000,,2013-08-08 00:52:00,
2013-08-07 17:22:00,56.0,53.0,-100.00,East,83,3.0,7.0,90,0.00,,,0.03,115.000000,,2013-08-08 01:22:00,
2013-08-07 17:32:00,56.0,53.0,-100.00,East,83,3.0,7.0,90,0.00,,,0.03,115.000000,,2013-08-08 01:32:00,
2013-08-07 17:43:00,56.0,53.0,-100.00,East,83,3.0,7.0,90,0.00,,,0.03,115.000000,,2013-08-08 01:43:00,
2013-08-07 17:52:00,56.0,53.0,-100.00,East,83,3.0,7.0,90,0.00,,,0.03,115.000000,,2013-08-08 01:52:00,
2013-08-07 18:32:00,56.0,52.0,-100.00,NE,51,3.0,9.0,85,0.00,,,0.03,98.000000,,2013-08-08 02:32:00,
2013-08-07 18:42:00,56.0,52.0,-100.00,NE,51,3.0,9.0,85,0.00,,,0.03,98.000000,,2013-08-08 02:42:00,
2013-08-07 18:52:00,56.0,52.0,-100.00,NE,51,3.0,9.0,85,0.00,,,0.03,98.000000,,2013-08-08 02:52:00,
2013-08-07 19:22:00,55.0,48.0,-100.00,NE,42,4.0,13.0,77,0.00,,,0.03,46.000000,,2013-08-08 03:22:00,
2013-08-07 19:32:00,55.0,48.0,-100.00,NE,42,4.0,13.0,77,0.00,,,0.03,46.000000,,2013-08-08 03:32:00,
2013-08-07 19:43:00,55.0,48.0,-100.00,NE,42,4.0,13.0,77,0.00,,,0.03,46.000000,,2013-08-08 03:43:00,
2013-08-07 19:52:00,55.0,48.0,-100.00,NE,42,4.0,13.0,77,0.00,,,0.03,46.000000,,2013-08-08 03:52:00,
2013-08-07 20:22:00,54.0,49.0,-100.00,SSW,213,5.0,14.0,84,0.00,,,0.03,31.000000,,2013-08-08 04:22:00,
2013-08-07 20:33:00,54.0,49.0,-100.00,SSW,213,5.0,14.0,84,0.00,,,0.03,31.000000,,2013-08-08 04:33:00,
2013-08-07 20:43:00,54.0,49.0,-100.00,SSW,213,5.0,14.0,84,0.00,,,0.03,31.000000,,2013-08-08 04:43:00,
2013-08-07 20:53:00,54.0,49.0,-100.00,SSW,213,5.0,14.0,84,0.00,,,0.03,31.000000,,2013-08-08 04:53:00,
2013-08-07 21:22:00,54.0,48.0,-100.00,NE,35,4.0,7.0,80,0.00,,,0.03,16.000000,,2013-08-08 05:22:00,
2013-08-07 21:33:00,54.0,48.0,-100.00,NE,35,4.0,7.0,80,0.00,,,0.03,16.000000,,2013-08-08 05:33:00,
2013-08-07 21:43:00,54.0,48.0,-100.00,NE,35,4.0,7.0,80,0.00,,,0.03,16.000000,,2013-08-08 05:43:00,
2013-08-07 21:52:00,54.0,48.0,-100.00,NE,35,4.0,7.0,80,0.00,,,0.03,16.000000,,2013-08-08 05:52:00,
2013-08-07 22:32:00,53.0,50.0,-100.00,North,5,3.0,6.0,90,0.00,,,0.03,6.000000,,2013-08-08 06:32:00,
2013-08-07 22:43:00,53.0,50.0,-100.00,North,5,3.0,6.0,90,0.00,,,0.03,6.000000,,2013-08-08 06:43:00,
2013-08-07 22:52:00,53.0,50.0,-100.00,North,5,3.0,6.0,90,0.00,,,0.03,6.000000,,2013-08-08 06:52:00,
2013-08-07 23:43:00,53.0,50.0,-100.00,NE,37,3.0,7.0,89,0.00,,,0.03,0.000000,,2013-08-08 07:43:00,
2013-08-07 23:53:00,53.0,50.0,-100.00,NE,37,3.0,7.0,89,0.00,,,0.03,0.000000,,2013-08-08 07:53:00,